Time;durP1;ratioP1;P1;durP2;ratioP2;P2;SDS_P1;SDS_P2;PMS_P1;PMS_P2;Temp;Humidity;BMP_temperature;BMP_pressure;BME280_temperature;BME280_humidity;BME280_pressure;Samples;Min_cycle;Max_cycle;Signal;HPM_P1;HPM_P2
2021/01/03 00:00:40;;;;;;;10.20;7.20;;;;;;;-2.50;80.89;94787.00;5092887;28;20255;-76
2021/01/03 00:03:05;;;;;;;8.87;7.17;;;;;;;-2.42;81.21;94781.47;5114955;27;20178;-76
2021/01/03 00:05:33;;;;;;;14.87;9.50;;;;;;;-2.59;81.05;94788.34;5093624;28;20181;-76
2021/01/03 00:07:58;;;;;;;9.57;6.83;;;;;;;-2.65;80.83;94785.31;5083611;28;20170;-76
2021/01/03 00:10:24;;;;;;;10.40;5.97;;;;;;;-2.60;81.77;94780.81;5093673;28;20204;-76
2021/01/03 00:12:49;;;;;;;10.00;7.53;;;;;;;-2.54;81.45;94775.38;5116053;27;20178;-76
2021/01/03 00:15:17;;;;;;;8.83;7.10;;;;;;;-2.50;81.01;94768.41;5095946;28;20226;-76
2021/01/03 00:17:43;;;;;;;10.00;7.00;;;;;;;-2.53;80.96;94779.56;5094470;28;20761;-76
2021/01/03 00:20:13;;;;;;;9.60;7.60;;;;;;;-2.52;80.96;94771.03;5094543;28;20174;-76
2021/01/03 00:22:38;;;;;;;10.03;7.17;;;;;;;-2.54;81.10;94764.41;5096836;27;20169;-76
2021/01/03 00:25:05;;;;;;;9.13;7.17;;;;;;;-2.52;80.94;94765.13;5098835;28;20200;-76
2021/01/03 00:27:31;;;;;;;9.40;7.23;;;;;;;-2.52;80.60;94763.41;5112605;28;20198;-76
2021/01/03 00:29:56;;;;;;;10.03;7.43;;;;;;;-2.50;80.97;94769.22;5112440;28;20697;-76
2021/01/03 00:32:21;;;;;;;8.27;7.37;;;;;;;-2.49;81.12;94764.94;5094407;28;20179;-76
2021/01/03 00:34:47;;;;;;;9.27;6.90;;;;;;;-2.47;80.76;94763.13;5091819;28;20196;-76
2021/01/03 00:37:12;;;;;;;10.60;8.20;;;;;;;-2.51;80.43;94767.56;5091156;28;20193;-76
2021/01/03 00:39:38;;;;;;;8.67;7.33;;;;;;;-2.51;80.99;94767.56;5094127;28;20179;-76
2021/01/03 00:42:04;;;;;;;9.67;7.60;;;;;;;-2.49;80.86;94754.78;5112476;28;20174;-76
2021/01/03 00:44:29;;;;;;;11.17;8.83;;;;;;;-2.50;80.23;94768.41;5097052;28;20194;-76
2021/01/03 00:46:54;;;;;;;9.70;7.23;;;;;;;-2.51;80.39;94751.50;5105875;28;20189;-76
2021/01/03 00:49:20;;;;;;;11.50;7.93;;;;;;;-2.50;80.33;94756.50;5073693;28;20246;-76
2021/01/03 00:51:45;;;;;;;9.87;7.30;;;;;;;-2.58;80.40;94753.56;5091188;28;20169;-76
2021/01/03 00:54:10;;;;;;;10.17;7.37;;;;;;;-2.55;80.39;94760.22;5074073;28;20694;-75
2021/01/03 00:56:36;;;;;;;10.17;7.90;;;;;;;-2.61;80.64;94763.94;5111916;28;20258;-77
2021/01/03 00:59:01;;;;;;;11.20;8.30;;;;;;;-2.63;80.58;94761.47;5093790;28;20181;-76
2021/01/03 01:01:26;;;;;;;10.40;7.03;;;;;;;-2.73;81.02;94755.28;5077166;28;20650;-76
2021/01/03 01:03:52;;;;;;;9.67;7.60;;;;;;;-2.69;80.80;94764.38;5093881;28;20202;-76
2021/01/03 01:06:18;;;;;;;11.10;8.17;;;;;;;-2.65;80.82;94770.94;5111257;28;20200;-76
2021/01/03 01:08:43;;;;;;;10.03;7.50;;;;;;;-2.73;80.87;94762.91;5093589;28;20528;-76
2021/01/03 01:11:08;;;;;;;8.77;7.20;;;;;;;-2.66;80.87;94761.63;5076864;28;20678;-76
2021/01/03 01:13:34;;;;;;;13.17;8.27;;;;;;;-2.73;80.55;94762.09;5110918;28;20170;-77
2021/01/03 01:16:00;;;;;;;8.53;7.33;;;;;;;-2.70;81.08;94767.00;5092827;28;20200;-76
2021/01/03 01:18:26;;;;;;;10.57;7.73;;;;;;;-2.70;80.93;94765.28;5109616;28;20203;-76
2021/01/03 01:20:51;;;;;;;13.57;8.13;;;;;;;-2.70;80.59;94767.00;5073554;28;20664;-76
2021/01/03 01:23:16;;;;;;;8.07;6.87;;;;;;;-2.71;80.79;94768.72;5091606;28;20174;-76
2021/01/03 01:25:42;;;;;;;7.80;6.73;;;;;;;-2.74;81.45;94766.38;5091476;28;20174;-76
2021/01/03 01:28:07;;;;;;;10.77;7.50;;;;;;;-2.67;81.07;94770.16;5089583;28;20180;-77
2021/01/03 01:30:33;;;;;;;8.57;7.20;;;;;;;-2.64;80.86;94770.00;5089954;28;20987;-76
2021/01/03 01:33:00;;;;;;;8.17;7.17;;;;;;;-2.62;80.72;94770.75;5090372;28;20173;-77
2021/01/03 01:35:28;;;;;;;9.57;7.23;;;;;;;-2.59;81.02;94773.09;5073485;28;20185;-76
2021/01/03 01:37:53;;;;;;;9.93;7.47;;;;;;;-2.58;81.04;94777.28;5082144;28;20235;-76
2021/01/03 01:40:22;;;;;;;9.93;7.40;;;;;;;-2.72;80.62;94778.97;5083603;28;20269;-76
2021/01/03 01:42:47;;;;;;;12.43;8.13;;;;;;;-2.78;81.84;94780.13;5073662;28;20532;-76
2021/01/03 01:45:16;;;;;;;10.57;7.73;;;;;;;-2.72;80.64;94773.91;5073429;28;20386;-76
2021/01/03 01:47:45;;;;;;;9.90;7.17;;;;;;;-2.64;81.27;94771.75;5074006;28;20560;-76
2021/01/03 01:50:16;;;;;;;11.50;7.93;;;;;;;-2.72;81.32;94776.44;5096214;28;20180;-76
2021/01/03 01:52:46;;;;;;;10.23;7.77;;;;;;;-2.64;81.42;94774.28;5073316;28;20184;-76
2021/01/03 01:55:19;;;;;;;11.70;8.23;;;;;;;-2.76;81.15;94774.97;5073342;28;20207;-76
2021/01/03 01:57:49;;;;;;;11.20;7.43;;;;;;;-2.76;81.29;94777.50;5056570;28;20239;-76
2021/01/03 02:00:17;;;;;;;9.93;7.87;;;;;;;-2.78;81.08;94775.06;5095706;28;20218;-76
2021/01/03 02:02:48;;;;;;;10.43;8.00;;;;;;;-2.68;81.15;94775.34;5081451;28;20269;-76
2021/01/03 02:05:23;;;;;;;12.20;8.20;;;;;;;-2.62;80.51;94775.00;5100645;28;20185;-76
2021/01/03 02:07:55;;;;;;;10.90;8.20;;;;;;;-2.78;81.08;94775.06;5097216;28;20202;-76
2021/01/03 02:10:34;;;;;;;10.97;8.07;;;;;;;-2.78;81.49;94772.50;5077054;28;20547;-76
2021/01/03 02:13:21;;;;;;;11.13;8.83;;;;;;;-2.68;81.24;94773.63;5093750;28;20191;-76
2021/01/03 02:15:47;;;;;;;10.80;8.97;;;;;;;-2.65;80.98;94773.47;5094690;28;20176;-76
2021/01/03 02:18:14;;;;;;;10.43;8.80;;;;;;;-2.62;80.60;94767.38;5076760;28;20290;-76
2021/01/03 02:20:54;;;;;;;11.83;8.93;;;;;;;-2.64;80.76;94771.75;5085462;28;20178;-75
2021/01/03 02:23:43;;;;;;;11.67;9.10;;;;;;;-2.63;80.77;94768.28;5105363;28;20220;-75
2021/01/03 02:26:10;;;;;;;11.03;8.90;;;;;;;-2.64;81.09;94770.00;5076435;28;20762;-76
2021/01/03 02:28:41;;;;;;;11.57;8.83;;;;;;;-2.69;81.21;94764.38;5076432;28;20166;-76
2021/01/03 02:31:08;;;;;;;10.87;9.27;;;;;;;-2.76;81.21;94765.59;5088052;27;20184;-76
2021/01/03 02:33:33;;;;;;;11.17;8.87;;;;;;;-2.75;81.85;94763.88;5096719;28;20212;-76
2021/01/03 02:36:03;;;;;;;12.33;9.37;;;;;;;-2.67;81.37;94764.28;5114888;28;20226;-76
2021/01/03 02:38:30;;;;;;;12.07;9.00;;;;;;;-2.72;81.59;94766.28;5096603;28;20206;-76
2021/01/03 02:40:55;;;;;;;15.37;9.60;;;;;;;-2.65;81.14;94765.84;5095145;28;20177;-75
2021/01/03 02:43:20;;;;;;;12.10;9.60;;;;;;;-2.62;81.52;94764.84;5095359;28;20697;-76
2021/01/03 02:45:46;;;;;;;14.20;9.07;;;;;;;-2.58;81.08;94756.94;5096498;28;20168;-76
2021/01/03 02:48:18;;;;;;;12.27;9.37;;;;;;;-2.51;81.01;94761.69;5096493;28;20243;-76
2021/01/03 02:50:43;;;;;;;12.97;9.37;;;;;;;-2.62;80.82;94755.50;5096140;28;20197;-76
2021/01/03 02:53:09;;;;;;;13.87;9.77;;;;;;;-2.72;81.11;94763.72;5097772;28;20207;-76
2021/01/03 02:55:34;;;;;;;15.27;10.33;;;;;;;-2.79;81.50;94767.53;5096112;28;20180;-76
2021/01/03 02:58:00;;;;;;;12.63;9.90;;;;;;;-2.64;81.35;94762.38;5079360;28;20206;-76
2021/01/03 03:00:31;;;;;;;12.43;9.50;;;;;;;-2.58;81.09;94762.03;5096409;28;20246;-76
2021/01/03 03:02:57;;;;;;;12.93;9.73;;;;;;;-2.58;81.04;94756.94;5094754;28;20182;-76
2021/01/03 03:05:23;;;;;;;12.73;9.43;;;;;;;-2.68;81.16;94755.84;5113395;28;20656;-76
2021/01/03 03:07:49;;;;;;;13.30;10.70;;;;;;;-2.73;81.68;94755.28;5079204;28;20203;-77
2021/01/03 03:10:15;;;;;;;13.93;10.57;;;;;;;-2.74;81.22;94753.66;5095711;28;20175;-76
2021/01/03 03:12:41;;;;;;;12.47;10.07;;;;;;;-2.83;80.76;94756.69;5096038;28;20193;-76
2021/01/03 03:15:08;;;;;;;12.90;10.07;;;;;;;-2.80;80.89;94751.47;5092856;28;20555;-76
2021/01/03 03:17:34;;;;;;;13.63;10.03;;;;;;;-2.75;81.46;94746.09;5113785;28;20740;-76
2021/01/03 03:19:59;;;;;;;14.87;10.73;;;;;;;-2.75;80.98;94746.91;5113904;28;20265;-77
2021/01/03 03:22:24;;;;;;;14.93;10.97;;;;;;;-2.83;81.63;94743.16;5095889;28;20231;-76
2021/01/03 03:24:49;;;;;;;13.90;10.40;;;;;;;-2.76;82.01;94744.47;5115021;27;20208;-77
2021/01/03 03:27:15;;;;;;;14.17;11.00;;;;;;;-2.74;81.63;94742.66;5098323;28;20277;-76
2021/01/03 03:29:41;;;;;;;13.23;10.73;;;;;;;-2.77;81.83;94745.38;5095457;28;20288;-77
2021/01/03 03:32:06;;;;;;;14.67;11.03;;;;;;;-2.82;82.18;94748.19;5113851;28;20178;-76
2021/01/03 03:34:31;;;;;;;13.90;11.40;;;;;;;-2.75;81.46;94743.56;5093503;28;20206;-76
2021/01/03 03:36:57;;;;;;;17.70;11.63;;;;;;;-2.74;81.44;94746.03;5118030;27;20214;-76
2021/01/03 03:39:27;;;;;;;16.73;11.60;;;;;;;-2.70;81.55;94739.03;5094996;28;20183;-76
2021/01/03 03:42:01;;;;;;;15.20;11.53;;;;;;;-2.76;81.91;94744.47;5095360;28;20217;-76
2021/01/03 03:44:28;;;;;;;15.73;12.00;;;;;;;-2.77;82.55;94746.19;5095201;28;20167;-76
2021/01/03 03:46:56;;;;;;;16.27;11.37;;;;;;;-2.76;82.83;94742.75;5081009;28;20223;-76
2021/01/03 03:49:22;;;;;;;15.67;11.80;;;;;;;-2.77;83.26;94730.13;5093140;28;20204;-77
2021/01/03 03:51:52;;;;;;;16.57;12.03;;;;;;;-2.71;82.31;94740.75;5095231;28;20638;-77
2021/01/03 03:54:17;;;;;;;14.80;11.90;;;;;;;-2.73;83.08;94732.41;5113454;28;20208;-76
2021/01/03 03:56:48;;;;;;;17.13;12.87;;;;;;;-2.71;82.76;94733.13;5112479;27;20691;-77
2021/01/03 03:59:14;;;;;;;15.73;12.37;;;;;;;-2.74;83.41;94729.94;5085757;28;20224;-77
2021/01/03 04:01:39;;;;;;;17.27;11.67;;;;;;;-2.74;83.45;94735.88;5074784;28;20185;-77
2021/01/03 04:04:04;;;;;;;16.73;12.03;;;;;;;-2.73;83.59;94729.88;5074347;28;20186;-76
2021/01/03 04:06:30;;;;;;;15.57;11.80;;;;;;;-2.73;83.50;94731.59;5074569;28;20669;-76
2021/01/03 04:08:55;;;;;;;16.77;11.73;;;;;;;-2.79;83.26;94732.75;5098386;28;20187;-76
2021/01/03 04:11:20;;;;;;;16.10;12.13;;;;;;;-2.78;83.45;94736.94;5076632;28;20218;-76
2021/01/03 04:13:46;;;;;;;17.53;12.07;;;;;;;-2.77;83.73;94741.09;5074673;28;20544;-76
2021/01/03 04:16:11;;;;;;;18.60;12.63;;;;;;;-2.80;84.22;94736.22;5092666;28;20836;-77
2021/01/03 04:18:36;;;;;;;19.33;13.40;;;;;;;-2.86;84.45;94736.53;5103962;28;20212;-77
2021/01/03 04:21:02;;;;;;;19.00;12.97;;;;;;;-2.84;84.62;94739.81;5112899;28;20184;-77
2021/01/03 04:23:27;;;;;;;17.93;12.43;;;;;;;-2.84;84.47;94729.66;5094566;28;20598;-77
2021/01/03 04:25:52;;;;;;;17.70;12.90;;;;;;;-2.88;84.70;94730.75;5094291;28;20202;-76
2021/01/03 04:28:18;;;;;;;19.17;13.53;;;;;;;-2.85;84.68;94733.09;5111454;27;20187;-76
2021/01/03 04:30:43;;;;;;;19.90;13.10;;;;;;;-2.88;84.93;94735.81;5107825;28;20189;-76
2021/01/03 04:33:09;;;;;;;18.93;13.60;;;;;;;-2.82;84.39;94732.94;5092196;28;20174;-77
2021/01/03 04:35:34;;;;;;;18.93;13.43;;;;;;;-2.87;85.34;94729.84;5074298;28;20663;-76
2021/01/03 04:37:59;;;;;;;19.33;13.43;;;;;;;-2.88;85.10;94735.81;5074028;28;20200;-76
2021/01/03 04:40:27;;;;;;;20.40;14.00;;;;;;;-2.81;85.52;94737.13;5093846;28;20201;-76
2021/01/03 04:42:56;;;;;;;18.77;13.67;;;;;;;-2.88;84.74;94738.38;5094373;28;20177;-76
2021/01/03 04:45:27;;;;;;;18.63;13.83;;;;;;;-2.89;85.63;94741.81;5094476;28;20185;-76
2021/01/03 04:47:57;;;;;;;18.40;12.90;;;;;;;-2.83;85.65;94749.06;5112562;28;20200;-75
2021/01/03 04:50:26;;;;;;;18.40;13.60;;;;;;;-2.95;85.71;94742.16;5092402;28;20193;-76
2021/01/03 04:53:29;;;;;;;19.47;14.23;;;;;;;-2.91;86.02;94736.81;5094091;28;20187;-76
2021/01/03 04:56:00;;;;;;;18.70;13.73;;;;;;;-2.93;85.64;94745.41;5094069;28;20223;-76
2021/01/03 04:58:34;;;;;;;19.53;14.23;;;;;;;-2.97;85.83;94739.69;5094074;28;20216;-76
2021/01/03 05:01:37;;;;;;;19.60;14.27;;;;;;;-2.91;85.32;94739.38;5092517;28;20230;-76
2021/01/03 05:04:25;;;;;;;19.47;13.77;;;;;;;-2.90;85.60;94740.19;5107278;28;20207;-76
2021/01/03 05:06:53;;;;;;;20.47;13.33;;;;;;;-2.87;86.01;94745.91;5093937;28;20200;-76
2021/01/03 05:09:18;;;;;;;19.63;13.73;;;;;;;-2.94;86.20;94741.25;5093788;28;20570;-76
2021/01/03 05:11:47;;;;;;;18.93;14.17;;;;;;;-2.91;86.16;94746.97;5075852;28;20193;-76
2021/01/03 05:14:20;;;;;;;18.87;13.90;;;;;;;-2.97;86.24;94744.78;5112098;28;20188;-76
2021/01/03 05:16:52;;;;;;;22.33;16.40;;;;;;;-2.94;85.96;94753.94;5093792;28;20706;-76
2021/01/03 05:19:18;;;;;;;21.60;15.57;;;;;;;-2.89;85.98;94747.72;5092124;28;20192;-76
2021/01/03 05:21:48;;;;;;;23.87;16.93;;;;;;;-2.95;86.39;94742.16;5107273;28;20555;-76
2021/01/03 05:24:14;;;;;;;21.93;16.00;;;;;;;-2.97;86.46;94749.03;5057024;28;20191;-75
2021/01/03 05:26:40;;;;;;;23.50;17.37;;;;;;;-2.92;86.44;94744.50;5073664;28;20198;-76
2021/01/03 05:29:07;;;;;;;21.50;15.90;;;;;;;-2.91;86.68;94743.63;5091988;28;20173;-76
2021/01/03 05:31:33;;;;;;;21.43;16.57;;;;;;;-2.87;86.73;94750.16;5093419;28;20267;-76
2021/01/03 05:34:00;;;;;;;18.70;14.10;;;;;;;-2.89;86.68;94749.44;5093627;28;20681;-76
2021/01/03 05:36:41;;;;;;;18.80;13.90;;;;;;;-2.88;86.82;94756.16;5111916;28;20586;-76
2021/01/03 05:39:21;;;;;;;19.47;14.63;;;;;;;-2.92;86.30;94752.13;5097213;28;20214;-75
2021/01/03 05:41:46;;;;;;;17.60;13.03;;;;;;;-2.94;86.63;94749.69;5117003;27;20270;-76
2021/01/03 05:44:26;;;;;;;18.77;12.77;;;;;;;-2.91;86.74;94748.72;5098825;28;20230;-75
2021/01/03 05:46:58;;;;;;;21.93;15.50;;;;;;;-2.93;86.75;94745.41;5060787;28;20200;-76
2021/01/03 05:49:25;;;;;;;17.70;13.17;;;;;;;-2.95;86.89;94745.50;5077237;28;20227;-75
2021/01/03 05:52:14;;;;;;;20.97;13.80;;;;;;;-2.97;87.01;94747.31;5090674;28;20174;-75
2021/01/03 05:54:40;;;;;;;18.33;13.90;;;;;;;-3.03;87.30;94754.47;5089488;28;20199;-76
2021/01/03 05:57:27;;;;;;;29.70;19.00;;;;;;;-3.00;87.34;94749.22;5098113;28;20212;-75
2021/01/03 05:59:52;;;;;;;20.53;14.10;;;;;;;-3.00;87.32;94749.22;5086344;28;20200;-76
2021/01/03 06:02:23;;;;;;;22.63;16.53;;;;;;;-3.02;87.22;94754.38;5096433;28;20621;-76
2021/01/03 06:05:05;;;;;;;21.10;14.70;;;;;;;-2.97;86.99;94760.03;5079896;28;20181;-76
2021/01/03 06:07:31;;;;;;;22.60;15.63;;;;;;;-2.95;86.83;94753.13;5097440;28;20188;-75
2021/01/03 06:09:56;;;;;;;19.33;14.37;;;;;;;-2.93;87.03;94748.78;5096874;28;20670;-76
2021/01/03 06:12:27;;;;;;;20.73;14.53;;;;;;;-2.95;86.99;94752.31;5081019;27;20189;-75
2021/01/03 06:14:55;;;;;;;32.60;18.87;;;;;;;-2.93;87.19;94748.78;5109410;28;20221;-75
2021/01/03 06:17:32;;;;;;;22.17;15.47;;;;;;;-2.98;87.28;94752.50;5076529;28;20267;-74
2021/01/03 06:20:08;;;;;;;24.67;16.27;;;;;;;-2.97;87.11;94749.03;5076565;28;20174;-75
2021/01/03 06:22:48;;;;;;;20.43;14.63;;;;;;;-3.00;87.09;94752.59;5094559;28;20181;-75
2021/01/03 06:25:41;;;;;;;21.83;14.80;;;;;;;-2.94;87.37;94744.59;5093249;28;20182;-75
2021/01/03 06:28:22;;;;;;;43.87;20.57;;;;;;;-2.96;87.44;94755.75;5077175;28;20196;-75
2021/01/03 06:31:00;;;;;;;38.87;21.30;;;;;;;-2.99;87.73;94761.03;5094572;28;20168;-74
2021/01/03 06:33:38;;;;;;;44.00;23.83;;;;;;;-2.94;87.66;94748.84;5063390;28;20221;-75
2021/01/03 06:36:13;;;;;;;24.87;16.07;;;;;;;-3.02;87.51;94753.56;5114673;28;20196;-76
2021/01/03 06:39:03;;;;;;;24.93;16.13;;;;;;;-3.02;87.50;94751.00;5096433;28;20293;-75
2021/01/03 06:41:47;;;;;;;25.93;17.03;;;;;;;-3.09;87.85;94752.25;5096784;28;20170;-74
2021/01/03 06:44:39;;;;;;;30.93;17.80;;;;;;;-3.03;87.70;94747.66;5097208;27;20190;-74
2021/01/03 06:47:16;;;;;;;28.77;18.53;;;;;;;-3.07;88.22;94750.47;5096303;28;20200;-74
2021/01/03 06:49:56;;;;;;;27.90;18.77;;;;;;;-3.00;88.13;94755.13;5113129;28;20175;-74
2021/01/03 06:52:28;;;;;;;29.57;19.23;;;;;;;-2.98;87.75;94757.56;5079562;28;20180;-74
2021/01/03 06:54:59;;;;;;;25.67;17.10;;;;;;;-2.97;87.64;94752.41;5114327;27;20192;-75
2021/01/03 06:57:46;;;;;;;31.37;21.17;;;;;;;-2.97;87.44;94751.59;5112469;27;20685;-75
2021/01/03 07:00:14;;;;;;;33.60;22.43;;;;;;;-2.94;87.53;94754.75;5093955;28;20215;-75
2021/01/03 07:02:44;;;;;;;30.60;18.27;;;;;;;-3.05;87.95;94751.19;5093838;28;20177;-75
2021/01/03 07:05:10;;;;;;;34.33;22.47;;;;;;;-3.03;87.94;94755.28;5094761;28;20177;-75
2021/01/03 07:07:38;;;;;;;46.47;17.70;;;;;;;-3.04;87.93;94747.75;5098666;28;20255;-75
2021/01/03 07:10:11;;;;;;;25.00;16.73;;;;;;;-3.08;88.03;94747.09;5075552;28;20188;-75
2021/01/03 07:12:48;;;;;;;36.17;21.20;;;;;;;-3.04;88.35;94753.63;5075669;28;20189;-75
2021/01/03 07:15:22;;;;;;;29.27;18.00;;;;;;;-2.96;87.64;94756.56;5075758;28;20192;-75
2021/01/03 07:17:56;;;;;;;27.33;17.33;;;;;;;-2.95;88.14;94747.22;5111560;27;20258;-75
2021/01/03 07:20:34;;;;;;;25.43;16.97;;;;;;;-2.93;88.00;94753.03;5095410;28;20268;-75
2021/01/03 07:23:15;;;;;;;24.57;16.10;;;;;;;-2.92;87.81;94754.66;5093822;28;20239;-75
2021/01/03 07:26:01;;;;;;;22.70;14.70;;;;;;;-2.92;88.09;94757.22;5075464;28;20267;-75
2021/01/03 07:28:29;;;;;;;21.80;15.93;;;;;;;-2.92;88.02;94764.84;5096710;28;20580;-75
2021/01/03 07:31:21;;;;;;;25.50;15.03;;;;;;;-2.92;87.75;94770.72;5095669;28;20178;-75
2021/01/03 07:33:51;;;;;;;23.17;15.57;;;;;;;-2.88;87.97;94768.84;5075116;28;20304;-75
2021/01/03 07:36:37;;;;;;;22.10;15.50;;;;;;;-2.93;87.56;94760.66;5095455;28;20236;-75
2021/01/03 07:39:05;;;;;;;20.47;14.67;;;;;;;-2.92;87.76;94764.84;5094119;28;20212;-75
2021/01/03 07:41:30;;;;;;;21.33;14.30;;;;;;;-2.91;87.91;94779.19;5113695;28;20181;-75
2021/01/03 07:44:11;;;;;;;22.90;14.57;;;;;;;-2.87;87.78;94778.09;5095624;28;20181;-75
2021/01/03 07:46:56;;;;;;;21.57;14.23;;;;;;;-2.84;87.34;94777.94;5095234;28;20196;-76
2021/01/03 07:49:42;;;;;;;21.40;14.70;;;;;;;-2.92;87.52;94773.28;5094486;28;20186;-75
2021/01/03 07:52:17;;;;;;;21.37;14.60;;;;;;;-2.93;87.44;94775.91;5096994;28;20182;-75
2021/01/03 07:54:52;;;;;;;28.30;16.17;;;;;;;-2.87;87.69;94780.66;5098302;28;20175;-75
2021/01/03 07:57:18;;;;;;;23.40;15.60;;;;;;;-2.78;87.52;94777.59;5094705;28;20685;-75
2021/01/03 07:59:47;;;;;;;43.40;24.93;;;;;;;-2.73;87.03;94783.25;5111501;27;20187;-75
2021/01/03 08:02:13;;;;;;;44.60;23.07;;;;;;;-2.72;87.39;94782.34;5093876;28;20227;-75
2021/01/03 08:04:39;;;;;;;36.83;22.63;;;;;;;-2.71;87.15;94781.44;5094793;28;20237;-75
2021/01/03 08:07:12;;;;;;;32.90;20.70;;;;;;;-2.66;86.97;94787.06;5109664;28;20245;-76
2021/01/03 08:09:38;;;;;;;25.60;15.77;;;;;;;-2.70;87.35;94787.31;5090732;27;20668;-76
2021/01/03 08:12:12;;;;;;;25.60;17.53;;;;;;;-2.62;87.12;94780.09;5097265;28;20179;-76
2021/01/03 08:14:40;;;;;;;20.30;13.93;;;;;;;-2.60;86.69;94788.44;5112650;28;20181;-76
2021/01/03 08:17:05;;;;;;;23.53;14.83;;;;;;;-2.60;86.65;94791.78;5094407;28;20193;-76
2021/01/03 08:19:32;;;;;;;23.70;15.67;;;;;;;-2.61;86.45;94791.88;5094512;28;20524;-76
2021/01/03 08:22:00;;;;;;;19.37;14.37;;;;;;;-2.52;86.63;94793.91;5111218;27;20179;-76
2021/01/03 08:24:27;;;;;;;21.83;15.30;;;;;;;-2.48;86.76;94792.81;5094615;28;20646;-76
2021/01/03 08:27:11;;;;;;;20.60;14.67;;;;;;;-2.41;86.00;94794.09;5077881;28;20599;-75
2021/01/03 08:29:41;;;;;;;24.83;17.57;;;;;;;-2.32;85.78;94792.75;5094504;28;20180;-74
2021/01/03 08:32:15;;;;;;;28.60;18.50;;;;;;;-2.25;85.91;94788.16;5096606;28;20528;-74
2021/01/03 08:34:44;;;;;;;22.03;16.90;;;;;;;-2.27;85.18;94800.94;5085943;28;20279;-75
2021/01/03 08:37:40;;;;;;;19.03;13.80;;;;;;;-2.32;85.13;94795.31;5094394;28;20196;-75
2021/01/03 08:40:13;;;;;;;21.40;16.10;;;;;;;-2.19;85.27;94803.88;5087973;28;20220;-76
2021/01/03 08:42:40;;;;;;;18.00;12.77;;;;;;;-2.20;85.00;94801.44;5111134;28;20220;-75
2021/01/03 08:45:08;;;;;;;20.87;15.27;;;;;;;-2.18;84.72;94807.22;5094250;28;20186;-75
2021/01/03 08:47:40;;;;;;;20.43;14.57;;;;;;;-2.15;85.06;94807.03;5094051;28;20700;-75
2021/01/03 08:50:23;;;;;;;19.30;13.90;;;;;;;-2.06;84.72;94802.25;5093830;28;20174;-76
2021/01/03 08:53:19;;;;;;;19.30;13.57;;;;;;;-1.87;84.96;94796.88;5093861;28;20182;-76
2021/01/03 08:55:44;;;;;;;21.67;15.20;;;;;;;-1.86;84.18;94807.88;5087030;28;20178;-76
2021/01/03 08:58:15;;;;;;;19.97;13.47;;;;;;;-1.87;83.82;94814.69;5111770;28;20221;-75
2021/01/03 09:00:42;;;;;;;17.47;12.60;;;;;;;-2.01;83.90;94818.06;5093350;28;20278;-76
2021/01/03 09:03:19;;;;;;;16.43;11.93;;;;;;;-1.97;83.85;94812.78;5092995;28;20176;-75
2021/01/03 09:05:46;;;;;;;16.50;12.10;;;;;;;-1.92;84.17;94815.88;5093663;28;20201;-76
2021/01/03 09:08:32;;;;;;;17.40;11.93;;;;;;;-1.88;84.16;94824.97;5093724;28;20183;-76
2021/01/03 09:11:29;;;;;;;16.93;12.87;;;;;;;-1.92;83.69;94826.06;5093869;28;20269;-75
2021/01/03 09:14:12;;;;;;;19.87;13.87;;;;;;;-1.89;83.67;94825.88;5097633;28;20564;-75
2021/01/03 09:16:54;;;;;;;18.50;13.27;;;;;;;-1.79;83.93;94825.25;5096472;28;20287;-76
2021/01/03 09:19:29;;;;;;;16.30;12.50;;;;;;;-1.76;83.33;94831.91;5076680;28;20193;-76
2021/01/03 09:22:00;;;;;;;16.07;11.80;;;;;;;-1.85;82.86;94835.00;5093883;28;20237;-77
2021/01/03 09:24:33;;;;;;;16.13;11.00;;;;;;;-1.84;83.38;94834.06;5092428;28;20185;-75
2021/01/03 09:27:02;;;;;;;16.80;12.20;;;;;;;-1.85;83.57;94835.81;5092598;28;20292;-76
2021/01/03 09:29:37;;;;;;;16.13;11.90;;;;;;;-1.77;83.52;94835.31;5076960;28;20186;-75
2021/01/03 09:32:11;;;;;;;15.83;11.70;;;;;;;-1.77;83.52;94838.72;5093692;28;20570;-76
2021/01/03 09:34:47;;;;;;;16.73;12.43;;;;;;;-1.68;83.32;94839.88;5074774;28;20556;-76
2021/01/03 09:37:30;;;;;;;16.03;11.70;;;;;;;-1.54;83.23;94846.69;5089753;28;20221;-75
2021/01/03 09:40:07;;;;;;;15.03;11.63;;;;;;;-1.54;82.69;94844.97;5073189;28;20229;-77
2021/01/03 09:42:36;;;;;;;15.40;11.27;;;;;;;-1.52;82.81;94845.69;5073337;28;20187;-75
2021/01/03 09:45:18;;;;;;;15.57;11.47;;;;;;;-1.36;82.90;94849.88;5073007;28;20218;-77
2021/01/03 09:47:46;;;;;;;18.17;13.07;;;;;;;-1.28;82.39;94850.22;5109026;28;20726;-78
2021/01/03 09:50:21;;;;;;;15.47;11.80;;;;;;;-1.24;81.49;94849.09;5073305;28;20183;-75
2021/01/03 09:52:57;;;;;;;40.70;22.63;;;;;;;-1.23;81.02;94845.69;5090537;28;20183;-75
2021/01/03 09:55:28;;;;;;;54.70;30.27;;;;;;;-1.18;81.08;94852.09;5073426;28;20175;-75
2021/01/03 09:57:53;;;;;;;54.60;30.47;;;;;;;-1.07;81.12;94840.44;5090116;28;20267;-74
2021/01/03 10:00:24;;;;;;;14.93;10.90;;;;;;;-1.11;80.71;94852.56;5096259;28;20184;-76
2021/01/03 10:02:50;;;;;;;22.90;16.33;;;;;;;-1.03;80.52;94842.72;5091447;28;20267;-76
2021/01/03 10:05:29;;;;;;;27.63;17.97;;;;;;;-0.92;80.04;94844.59;5073273;28;20186;-75
2021/01/03 10:08:06;;;;;;;26.63;18.33;;;;;;;-0.87;80.01;94843.41;5088623;28;20190;-73
2021/01/03 10:10:46;;;;;;;37.53;21.93;;;;;;;-0.86;79.94;94837.38;5065193;28;20270;-75
2021/01/03 10:13:12;;;;;;;32.47;21.17;;;;;;;-0.71;79.71;94834.75;5091265;28;20723;-74
2021/01/03 10:15:39;;;;;;;47.33;26.30;;;;;;;-0.65;79.17;94840.31;5073165;28;20238;-73
2021/01/03 10:18:09;;;;;;;38.93;21.13;;;;;;;-0.68;78.26;94837.94;5100576;28;20732;-73
2021/01/03 10:20:40;;;;;;;24.53;14.80;;;;;;;-0.70;78.82;94836.44;5093023;28;20555;-74
2021/01/03 10:23:09;;;;;;;103.73;43.43;;;;;;;-0.74;78.50;94833.22;5093414;28;20180;-76
2021/01/03 10:25:34;;;;;;;44.13;22.93;;;;;;;-0.82;79.11;94835.44;5096992;28;20183;-75
2021/01/03 10:28:01;;;;;;;38.70;20.83;;;;;;;-0.79;79.22;94839.56;5095074;28;20577;-75
2021/01/03 10:30:28;;;;;;;19.67;13.47;;;;;;;-0.91;79.09;94836.84;5112313;27;20219;-75
2021/01/03 10:32:53;;;;;;;28.10;19.20;;;;;;;-0.75;78.97;94839.25;5076565;28;20648;-74
2021/01/03 10:35:18;;;;;;;14.83;11.53;;;;;;;-0.77;78.34;94840.28;5076483;28;20223;-74
2021/01/03 10:37:44;;;;;;;31.00;18.77;;;;;;;-0.62;78.96;94831.63;5076140;28;20215;-75
2021/01/03 10:40:10;;;;;;;60.63;31.40;;;;;;;-0.40;78.40;94829.34;5109813;27;20203;-75
2021/01/03 10:42:35;;;;;;;49.10;29.77;;;;;;;-0.43;77.53;94824.47;5106098;28;20201;-75
2021/01/03 10:45:00;;;;;;;24.47;17.80;;;;;;;-0.33;77.81;94828.03;5096497;28;20179;-75
2021/01/03 10:47:25;;;;;;;12.87;10.57;;;;;;;-0.34;76.57;94823.03;5114957;28;20207;-75
2021/01/03 10:49:51;;;;;;;13.00;10.03;;;;;;;-0.25;76.52;94817.34;5116088;27;20187;-75
2021/01/03 10:52:16;;;;;;;13.93;10.67;;;;;;;-0.31;76.83;94818.56;5116341;27;20187;-75
2021/01/03 10:54:41;;;;;;;12.43;9.40;;;;;;;-0.20;76.27;94817.03;5076030;28;20215;-76
2021/01/03 10:57:07;;;;;;;12.47;9.57;;;;;;;-0.17;76.30;94811.75;5075897;28;20192;-75
2021/01/03 10:59:32;;;;;;;12.90;9.60;;;;;;;-0.30;76.88;94815.06;5075792;28;20238;-75
2021/01/03 11:01:58;;;;;;;13.17;10.17;;;;;;;-0.13;76.50;94803.78;5092933;28;20235;-76
2021/01/03 11:04:24;;;;;;;16.93;13.93;;;;;;;0.34;75.89;94811.72;5096124;28;20654;-75
2021/01/03 11:06:52;;;;;;;19.43;14.43;;;;;;;0.75;74.88;94811.44;5112961;28;20211;-74
2021/01/03 11:09:23;;;;;;;17.10;15.27;;;;;;;1.02;73.84;94812.06;5079076;28;20545;-75
2021/01/03 11:11:50;;;;;;;14.47;11.00;;;;;;;0.56;72.66;94805.06;5094537;28;20179;-75
2021/01/03 11:14:15;;;;;;;15.00;11.40;;;;;;;0.71;73.33;94808.31;5095902;28;20694;-74
2021/01/03 11:16:42;;;;;;;15.73;11.83;;;;;;;0.81;72.63;94800.81;5095966;28;20226;-75
2021/01/03 11:19:10;;;;;;;14.83;11.27;;;;;;;0.90;73.57;94802.72;5095599;28;20212;-75
2021/01/03 11:21:35;;;;;;;15.50;11.30;;;;;;;0.56;73.56;94806.78;5093699;28;20196;-75
2021/01/03 11:24:01;;;;;;;16.53;12.67;;;;;;;0.26;75.06;94807.94;5096486;28;20567;-75
2021/01/03 11:26:32;;;;;;;15.83;12.27;;;;;;;0.31;75.09;94812.75;5094311;28;20226;-74
2021/01/03 11:28:58;;;;;;;16.43;12.90;;;;;;;0.23;75.06;94815.81;5095322;28;20657;-75
2021/01/03 11:31:30;;;;;;;16.70;12.13;;;;;;;0.02;74.67;94811.34;5095769;28;20268;-75
2021/01/03 11:33:56;;;;;;;13.70;11.13;;;;;;;-0.20;76.39;94811.94;5081900;28;20188;-75